sensor_id;sensor_type;location;lat;lon;timestamp;P1;durP1;ratioP1;P2;durP2;ratioP2
21657;SDS011;10990;48.174;9.782;2023-07-08T00:00:08;11.20;;;5.80;;
21657;SDS011;10990;48.174;9.782;2023-07-08T00:02:37;10.43;;;6.13;;
21657;SDS011;10990;48.174;9.782;2023-07-08T00:05:04;9.88;;;5.88;;
21657;SDS011;10990;48.174;9.782;2023-07-08T00:07:32;8.80;;;5.63;;
21657;SDS011;10990;48.174;9.782;2023-07-08T00:09:59;10.45;;;6.45;;
21657;SDS011;10990;48.174;9.782;2023-07-08T00:12:25;11.95;;;6.05;;
21657;SDS011;10990;48.174;9.782;2023-07-08T00:14:52;10.98;;;6.00;;
21657;SDS011;10990;48.174;9.782;2023-07-08T00:17:19;10.73;;;5.80;;
21657;SDS011;10990;48.174;9.782;2023-07-08T00:19:45;11.68;;;6.60;;
21657;SDS011;10990;48.174;9.782;2023-07-08T00:22:13;11.48;;;6.20;;
21657;SDS011;10990;48.174;9.782;2023-07-08T00:24:42;11.43;;;6.40;;
21657;SDS011;10990;48.174;9.782;2023-07-08T00:27:10;10.63;;;6.00;;
21657;SDS011;10990;48.174;9.782;2023-07-08T00:29:38;11.50;;;6.78;;
21657;SDS011;10990;48.174;9.782;2023-07-08T00:32:09;11.82;;;5.85;;
21657;SDS011;10990;48.174;9.782;2023-07-08T00:34:37;10.50;;;5.78;;
21657;SDS011;10990;48.174;9.782;2023-07-08T00:37:04;10.98;;;5.60;;
21657;SDS011;10990;48.174;9.782;2023-07-08T00:39:31;9.98;;;5.82;;
21657;SDS011;10990;48.174;9.782;2023-07-08T00:41:59;11.30;;;5.68;;
21657;SDS011;10990;48.174;9.782;2023-07-08T00:44:27;9.40;;;6.13;;
21657;SDS011;10990;48.174;9.782;2023-07-08T00:46:55;12.30;;;5.88;;
21657;SDS011;10990;48.174;9.782;2023-07-08T00:49:30;9.25;;;5.38;;
21657;SDS011;10990;48.174;9.782;2023-07-08T00:52:18;9.85;;;6.00;;
21657;SDS011;10990;48.174;9.782;2023-07-08T00:54:48;10.85;;;6.05;;
21657;SDS011;10990;48.174;9.782;2023-07-08T00:57:17;10.95;;;5.63;;
21657;SDS011;10990;48.174;9.782;2023-07-08T00:59:45;10.23;;;6.07;;
21657;SDS011;10990;48.174;9.782;2023-07-08T01:02:19;8.93;;;6.00;;
21657;SDS011;10990;48.174;9.782;2023-07-08T01:04:50;11.93;;;6.07;;
21657;SDS011;10990;48.174;9.782;2023-07-08T01:07:22;12.00;;;6.03;;
21657;SDS011;10990;48.174;9.782;2023-07-08T01:09:52;9.63;;;6.10;;
21657;SDS011;10990;48.174;9.782;2023-07-08T01:12:26;9.30;;;5.80;;
21657;SDS011;10990;48.174;9.782;2023-07-08T01:14:57;11.45;;;6.05;;
21657;SDS011;10990;48.174;9.782;2023-07-08T01:17:28;12.00;;;5.97;;
21657;SDS011;10990;48.174;9.782;2023-07-08T01:19:57;8.68;;;5.50;;
21657;SDS011;10990;48.174;9.782;2023-07-08T01:22:26;8.93;;;5.70;;
21657;SDS011;10990;48.174;9.782;2023-07-08T01:24:57;9.57;;;6.25;;
21657;SDS011;10990;48.174;9.782;2023-07-08T01:27:29;11.88;;;6.20;;
21657;SDS011;10990;48.174;9.782;2023-07-08T01:29:59;10.57;;;5.72;;
21657;SDS011;10990;48.174;9.782;2023-07-08T01:32:29;9.38;;;5.75;;
21657;SDS011;10990;48.174;9.782;2023-07-08T01:34:57;8.73;;;5.63;;
21657;SDS011;10990;48.174;9.782;2023-07-08T01:37:31;10.68;;;5.97;;
21657;SDS011;10990;48.174;9.782;2023-07-08T01:40:16;11.40;;;6.38;;
21657;SDS011;10990;48.174;9.782;2023-07-08T01:42:50;9.13;;;6.10;;
21657;SDS011;10990;48.174;9.782;2023-07-08T01:45:17;10.02;;;5.90;;
21657;SDS011;10990;48.174;9.782;2023-07-08T01:47:46;9.50;;;6.05;;
21657;SDS011;10990;48.174;9.782;2023-07-08T01:50:16;11.95;;;6.35;;
21657;SDS011;10990;48.174;9.782;2023-07-08T01:52:45;10.32;;;6.38;;
21657;SDS011;10990;48.174;9.782;2023-07-08T01:55:13;9.18;;;5.75;;
21657;SDS011;10990;48.174;9.782;2023-07-08T01:57:39;8.95;;;5.72;;
21657;SDS011;10990;48.174;9.782;2023-07-08T02:00:06;12.25;;;6.25;;
21657;SDS011;10990;48.174;9.782;2023-07-08T02:02:38;11.50;;;5.97;;
21657;SDS011;10990;48.174;9.782;2023-07-08T02:05:05;11.23;;;6.00;;
21657;SDS011;10990;48.174;9.782;2023-07-08T02:07:32;11.68;;;6.47;;
21657;SDS011;10990;48.174;9.782;2023-07-08T02:10:00;9.77;;;6.25;;
21657;SDS011;10990;48.174;9.782;2023-07-08T02:12:27;9.98;;;5.90;;
21657;SDS011;10990;48.174;9.782;2023-07-08T02:14:54;11.07;;;6.40;;
21657;SDS011;10990;48.174;9.782;2023-07-08T02:17:21;10.45;;;6.35;;
21657;SDS011;10990;48.174;9.782;2023-07-08T02:19:47;10.10;;;6.40;;
21657;SDS011;10990;48.174;9.782;2023-07-08T02:22:15;12.25;;;6.65;;
21657;SDS011;10990;48.174;9.782;2023-07-08T02:24:42;12.35;;;7.28;;
21657;SDS011;10990;48.174;9.782;2023-07-08T02:27:10;12.63;;;7.20;;
21657;SDS011;10990;48.174;9.782;2023-07-08T02:29:37;11.10;;;7.10;;
21657;SDS011;10990;48.174;9.782;2023-07-08T02:32:04;14.10;;;8.00;;
21657;SDS011;10990;48.174;9.782;2023-07-08T02:34:32;12.48;;;6.60;;
21657;SDS011;10990;48.174;9.782;2023-07-08T02:36:59;12.32;;;6.95;;
21657;SDS011;10990;48.174;9.782;2023-07-08T02:39:26;13.00;;;6.47;;
21657;SDS011;10990;48.174;9.782;2023-07-08T02:41:54;11.90;;;6.07;;
21657;SDS011;10990;48.174;9.782;2023-07-08T02:44:22;10.50;;;6.22;;
21657;SDS011;10990;48.174;9.782;2023-07-08T02:46:49;12.35;;;7.53;;
21657;SDS011;10990;48.174;9.782;2023-07-08T02:49:16;11.65;;;6.25;;
21657;SDS011;10990;48.174;9.782;2023-07-08T02:51:42;11.93;;;6.55;;
21657;SDS011;10990;48.174;9.782;2023-07-08T02:54:09;11.02;;;6.15;;
21657;SDS011;10990;48.174;9.782;2023-07-08T02:56:36;13.77;;;6.80;;
21657;SDS011;10990;48.174;9.782;2023-07-08T02:59:03;9.48;;;6.00;;
21657;SDS011;10990;48.174;9.782;2023-07-08T03:01:32;11.48;;;6.78;;
21657;SDS011;10990;48.174;9.782;2023-07-08T03:04:06;12.40;;;6.45;;
21657;SDS011;10990;48.174;9.782;2023-07-08T03:06:34;13.25;;;7.03;;
21657;SDS011;10990;48.174;9.782;2023-07-08T03:09:00;13.00;;;6.65;;
21657;SDS011;10990;48.174;9.782;2023-07-08T03:11:27;14.40;;;7.78;;
21657;SDS011;10990;48.174;9.782;2023-07-08T03:13:54;18.35;;;7.50;;
21657;SDS011;10990;48.174;9.782;2023-07-08T03:16:20;10.68;;;6.70;;
21657;SDS011;10990;48.174;9.782;2023-07-08T03:18:48;14.15;;;7.18;;
21657;SDS011;10990;48.174;9.782;2023-07-08T03:21:16;17.25;;;8.07;;
21657;SDS011;10990;48.174;9.782;2023-07-08T03:23:44;15.77;;;8.55;;
21657;SDS011;10990;48.174;9.782;2023-07-08T03:26:12;15.43;;;7.85;;
21657;SDS011;10990;48.174;9.782;2023-07-08T03:28:41;13.38;;;7.53;;
21657;SDS011;10990;48.174;9.782;2023-07-08T03:31:09;12.60;;;7.40;;
21657;SDS011;10990;48.174;9.782;2023-07-08T03:33:37;12.50;;;7.25;;
21657;SDS011;10990;48.174;9.782;2023-07-08T03:36:09;12.60;;;7.03;;
21657;SDS011;10990;48.174;9.782;2023-07-08T03:38:38;15.10;;;7.55;;
21657;SDS011;10990;48.174;9.782;2023-07-08T03:41:05;13.65;;;7.60;;
21657;SDS011;10990;48.174;9.782;2023-07-08T03:43:31;16.08;;;7.78;;
21657;SDS011;10990;48.174;9.782;2023-07-08T03:45:58;12.52;;;7.63;;
21657;SDS011;10990;48.174;9.782;2023-07-08T03:48:25;15.90;;;7.60;;
21657;SDS011;10990;48.174;9.782;2023-07-08T03:50:53;14.02;;;8.05;;
21657;SDS011;10990;48.174;9.782;2023-07-08T03:53:21;13.82;;;7.60;;
21657;SDS011;10990;48.174;9.782;2023-07-08T03:55:49;13.60;;;7.57;;
21657;SDS011;10990;48.174;9.782;2023-07-08T03:58:16;16.60;;;8.13;;
21657;SDS011;10990;48.174;9.782;2023-07-08T04:00:43;14.38;;;8.80;;
21657;SDS011;10990;48.174;9.782;2023-07-08T04:03:10;15.60;;;8.55;;
21657;SDS011;10990;48.174;9.782;2023-07-08T04:05:37;13.90;;;7.80;;
21657;SDS011;10990;48.174;9.782;2023-07-08T04:08:04;13.20;;;7.82;;
21657;SDS011;10990;48.174;9.782;2023-07-08T04:10:32;18.15;;;8.52;;
21657;SDS011;10990;48.174;9.782;2023-07-08T04:12:59;13.25;;;8.00;;
21657;SDS011;10990;48.174;9.782;2023-07-08T04:15:25;15.52;;;7.80;;
21657;SDS011;10990;48.174;9.782;2023-07-08T04:17:53;16.77;;;8.25;;
21657;SDS011;10990;48.174;9.782;2023-07-08T04:20:22;13.48;;;8.48;;
21657;SDS011;10990;48.174;9.782;2023-07-08T04:22:49;15.70;;;8.30;;
21657;SDS011;10990;48.174;9.782;2023-07-08T04:25:17;12.82;;;8.10;;
21657;SDS011;10990;48.174;9.782;2023-07-08T04:27:46;12.05;;;7.97;;
21657;SDS011;10990;48.174;9.782;2023-07-08T04:30:14;15.48;;;7.70;;
21657;SDS011;10990;48.174;9.782;2023-07-08T04:32:47;12.00;;;7.10;;
21657;SDS011;10990;48.174;9.782;2023-07-08T04:35:16;14.82;;;8.32;;
21657;SDS011;10990;48.174;9.782;2023-07-08T04:37:42;17.85;;;9.05;;
21657;SDS011;10990;48.174;9.782;2023-07-08T04:40:12;13.43;;;7.75;;
21657;SDS011;10990;48.174;9.782;2023-07-08T04:42:43;14.70;;;7.75;;
21657;SDS011;10990;48.174;9.782;2023-07-08T04:45:14;10.68;;;6.90;;
21657;SDS011;10990;48.174;9.782;2023-07-08T04:47:42;11.68;;;7.15;;
21657;SDS011;10990;48.174;9.782;2023-07-08T04:50:09;11.50;;;6.78;;
21657;SDS011;10990;48.174;9.782;2023-07-08T04:52:36;11.40;;;6.78;;
21657;SDS011;10990;48.174;9.782;2023-07-08T04:55:03;13.90;;;6.55;;
21657;SDS011;10990;48.174;9.782;2023-07-08T04:57:30;12.50;;;7.07;;
21657;SDS011;10990;48.174;9.782;2023-07-08T04:59:56;12.95;;;7.57;;
21657;SDS011;10990;48.174;9.782;2023-07-08T05:02:24;10.77;;;6.95;;
21657;SDS011;10990;48.174;9.782;2023-07-08T05:04:51;10.23;;;6.22;;
21657;SDS011;10990;48.174;9.782;2023-07-08T05:07:18;11.52;;;6.30;;
21657;SDS011;10990;48.174;9.782;2023-07-08T05:09:44;11.65;;;6.45;;
21657;SDS011;10990;48.174;9.782;2023-07-08T05:12:11;12.13;;;6.32;;
21657;SDS011;10990;48.174;9.782;2023-07-08T05:14:38;10.15;;;6.00;;
21657;SDS011;10990;48.174;9.782;2023-07-08T05:17:05;12.25;;;6.18;;
21657;SDS011;10990;48.174;9.782;2023-07-08T05:19:33;8.65;;;5.88;;
21657;SDS011;10990;48.174;9.782;2023-07-08T05:21:59;9.25;;;5.13;;
21657;SDS011;10990;48.174;9.782;2023-07-08T05:24:26;8.02;;;5.10;;
21657;SDS011;10990;48.174;9.782;2023-07-08T05:26:53;9.85;;;5.40;;
21657;SDS011;10990;48.174;9.782;2023-07-08T05:29:19;9.50;;;5.63;;
21657;SDS011;10990;48.174;9.782;2023-07-08T05:31:46;10.32;;;5.90;;
21657;SDS011;10990;48.174;9.782;2023-07-08T05:34:13;10.98;;;5.78;;
21657;SDS011;10990;48.174;9.782;2023-07-08T05:36:42;9.68;;;5.45;;
21657;SDS011;10990;48.174;9.782;2023-07-08T05:39:08;9.10;;;5.10;;
21657;SDS011;10990;48.174;9.782;2023-07-08T05:41:35;8.38;;;5.13;;
21657;SDS011;10990;48.174;9.782;2023-07-08T05:44:02;9.27;;;5.78;;
21657;SDS011;10990;48.174;9.782;2023-07-08T05:46:29;8.05;;;5.18;;
21657;SDS011;10990;48.174;9.782;2023-07-08T05:48:56;7.60;;;4.80;;
21657;SDS011;10990;48.174;9.782;2023-07-08T05:51:23;8.85;;;5.15;;
21657;SDS011;10990;48.174;9.782;2023-07-08T05:53:51;8.77;;;4.93;;
21657;SDS011;10990;48.174;9.782;2023-07-08T05:56:18;9.25;;;5.50;;
21657;SDS011;10990;48.174;9.782;2023-07-08T05:58:44;8.82;;;5.00;;
21657;SDS011;10990;48.174;9.782;2023-07-08T06:01:11;10.43;;;5.60;;
21657;SDS011;10990;48.174;9.782;2023-07-08T06:03:38;9.13;;;5.32;;
21657;SDS011;10990;48.174;9.782;2023-07-08T06:06:05;8.90;;;5.07;;
21657;SDS011;10990;48.174;9.782;2023-07-08T06:08:32;7.63;;;5.15;;
21657;SDS011;10990;48.174;9.782;2023-07-08T06:11:00;10.13;;;4.95;;
21657;SDS011;10990;48.174;9.782;2023-07-08T06:13:27;8.52;;;5.10;;
21657;SDS011;10990;48.174;9.782;2023-07-08T06:15:53;7.80;;;4.97;;
21657;SDS011;10990;48.174;9.782;2023-07-08T06:18:20;8.13;;;4.90;;
21657;SDS011;10990;48.174;9.782;2023-07-08T06:20:53;8.82;;;5.10;;
21657;SDS011;10990;48.174;9.782;2023-07-08T06:23:20;8.82;;;5.10;;
21657;SDS011;10990;48.174;9.782;2023-07-08T06:25:47;9.90;;;4.95;;
21657;SDS011;10990;48.174;9.782;2023-07-08T06:28:15;7.80;;;4.60;;
21657;SDS011;10990;48.174;9.782;2023-07-08T06:30:41;11.75;;;5.03;;
21657;SDS011;10990;48.174;9.782;2023-07-08T06:33:09;7.97;;;4.57;;
21657;SDS011;10990;48.174;9.782;2023-07-08T06:35:36;7.85;;;5.13;;
21657;SDS011;10990;48.174;9.782;2023-07-08T06:38:03;11.05;;;5.13;;
21657;SDS011;10990;48.174;9.782;2023-07-08T06:40:31;8.70;;;4.93;;
21657;SDS011;10990;48.174;9.782;2023-07-08T06:42:57;6.90;;;4.47;;
21657;SDS011;10990;48.174;9.782;2023-07-08T06:45:48;9.82;;;4.82;;
21657;SDS011;10990;48.174;9.782;2023-07-08T06:48:15;10.95;;;5.35;;
21657;SDS011;10990;48.174;9.782;2023-07-08T06:50:42;8.02;;;4.78;;
21657;SDS011;10990;48.174;9.782;2023-07-08T06:53:11;8.63;;;5.10;;
21657;SDS011;10990;48.174;9.782;2023-07-08T06:55:38;10.35;;;4.88;;
21657;SDS011;10990;48.174;9.782;2023-07-08T06:58:05;8.80;;;5.60;;
21657;SDS011;10990;48.174;9.782;2023-07-08T07:00:32;7.85;;;4.95;;
21657;SDS011;10990;48.174;9.782;2023-07-08T07:03:00;8.73;;;5.05;;
21657;SDS011;10990;48.174;9.782;2023-07-08T07:05:26;8.13;;;4.82;;
21657;SDS011;10990;48.174;9.782;2023-07-08T07:07:53;10.50;;;5.25;;
21657;SDS011;10990;48.174;9.782;2023-07-08T07:10:21;8.07;;;4.63;;
21657;SDS011;10990;48.174;9.782;2023-07-08T07:12:48;8.85;;;4.90;;
21657;SDS011;10990;48.174;9.782;2023-07-08T07:15:15;10.30;;;5.30;;
21657;SDS011;10990;48.174;9.782;2023-07-08T07:17:41;10.25;;;5.07;;
21657;SDS011;10990;48.174;9.782;2023-07-08T07:20:10;8.88;;;4.93;;
21657;SDS011;10990;48.174;9.782;2023-07-08T07:22:38;10.70;;;4.93;;
21657;SDS011;10990;48.174;9.782;2023-07-08T07:25:05;10.27;;;4.55;;
21657;SDS011;10990;48.174;9.782;2023-07-08T07:27:32;8.60;;;4.75;;
21657;SDS011;10990;48.174;9.782;2023-07-08T07:29:59;8.43;;;4.60;;
21657;SDS011;10990;48.174;9.782;2023-07-08T07:32:26;7.97;;;4.45;;
21657;SDS011;10990;48.174;9.782;2023-07-08T07:34:54;10.20;;;4.70;;
21657;SDS011;10990;48.174;9.782;2023-07-08T07:37:24;7.15;;;4.35;;
21657;SDS011;10990;48.174;9.782;2023-07-08T07:39:50;10.70;;;5.00;;
21657;SDS011;10990;48.174;9.782;2023-07-08T07:42:18;9.63;;;4.53;;
21657;SDS011;10990;48.174;9.782;2023-07-08T07:44:45;11.35;;;4.95;;
21657;SDS011;10990;48.174;9.782;2023-07-08T07:47:12;10.98;;;5.47;;
21657;SDS011;10990;48.174;9.782;2023-07-08T07:49:39;9.75;;;5.40;;
21657;SDS011;10990;48.174;9.782;2023-07-08T07:52:06;9.00;;;5.43;;
21657;SDS011;10990;48.174;9.782;2023-07-08T07:54:37;9.60;;;5.63;;
21657;SDS011;10990;48.174;9.782;2023-07-08T07:57:04;7.90;;;4.95;;
21657;SDS011;10990;48.174;9.782;2023-07-08T07:59:31;9.35;;;5.13;;
21657;SDS011;10990;48.174;9.782;2023-07-08T08:01:57;8.48;;;4.38;;
21657;SDS011;10990;48.174;9.782;2023-07-08T08:04:24;8.75;;;4.93;;
21657;SDS011;10990;48.174;9.782;2023-07-08T08:06:51;8.35;;;5.03;;
21657;SDS011;10990;48.174;9.782;2023-07-08T08:09:17;11.57;;;5.55;;
21657;SDS011;10990;48.174;9.782;2023-07-08T08:11:45;8.45;;;4.65;;
21657;SDS011;10990;48.174;9.782;2023-07-08T08:14:13;6.38;;;4.50;;
21657;SDS011;10990;48.174;9.782;2023-07-08T08:16:39;11.15;;;5.40;;
21657;SDS011;10990;48.174;9.782;2023-07-08T08:19:06;10.52;;;5.63;;
21657;SDS011;10990;48.174;9.782;2023-07-08T08:21:33;11.93;;;4.90;;
21657;SDS011;10990;48.174;9.782;2023-07-08T08:23:59;9.48;;;5.10;;
21657;SDS011;10990;48.174;9.782;2023-07-08T08:26:26;8.73;;;5.18;;
21657;SDS011;10990;48.174;9.782;2023-07-08T08:28:55;7.55;;;4.72;;
21657;SDS011;10990;48.174;9.782;2023-07-08T08:31:22;8.38;;;4.47;;
21657;SDS011;10990;48.174;9.782;2023-07-08T08:33:48;10.05;;;4.72;;
21657;SDS011;10990;48.174;9.782;2023-07-08T08:36:17;7.78;;;4.65;;
21657;SDS011;10990;48.174;9.782;2023-07-08T08:38:43;11.43;;;4.57;;
21657;SDS011;10990;48.174;9.782;2023-07-08T08:41:12;8.30;;;4.75;;
21657;SDS011;10990;48.174;9.782;2023-07-08T08:43:40;8.82;;;4.80;;
21657;SDS011;10990;48.174;9.782;2023-07-08T08:46:10;7.65;;;4.85;;
21657;SDS011;10990;48.174;9.782;2023-07-08T08:48:53;6.65;;;4.35;;
21657;SDS011;10990;48.174;9.782;2023-07-08T08:51:26;7.40;;;4.80;;
21657;SDS011;10990;48.174;9.782;2023-07-08T08:53:56;8.65;;;5.10;;
21657;SDS011;10990;48.174;9.782;2023-07-08T08:56:24;8.18;;;4.82;;
21657;SDS011;10990;48.174;9.782;2023-07-08T08:58:56;8.38;;;4.47;;
21657;SDS011;10990;48.174;9.782;2023-07-08T09:01:30;7.90;;;4.85;;
21657;SDS011;10990;48.174;9.782;2023-07-08T09:03:57;6.65;;;4.50;;
21657;SDS011;10990;48.174;9.782;2023-07-08T09:06:29;7.40;;;4.38;;
21657;SDS011;10990;48.174;9.782;2023-07-08T09:09:00;7.50;;;4.80;;
21657;SDS011;10990;48.174;9.782;2023-07-08T09:11:39;7.72;;;4.53;;
21657;SDS011;10990;48.174;9.782;2023-07-08T09:14:12;7.85;;;4.90;;
21657;SDS011;10990;48.174;9.782;2023-07-08T09:16:45;7.38;;;4.50;;
21657;SDS011;10990;48.174;9.782;2023-07-08T09:19:22;7.05;;;4.72;;
21657;SDS011;10990;48.174;9.782;2023-07-08T09:21:51;6.60;;;4.40;;
21657;SDS011;10990;48.174;9.782;2023-07-08T09:24:24;7.90;;;4.45;;
21657;SDS011;10990;48.174;9.782;2023-07-08T09:26:57;7.55;;;4.13;;
21657;SDS011;10990;48.174;9.782;2023-07-08T09:29:28;8.18;;;3.80;;
21657;SDS011;10990;48.174;9.782;2023-07-08T09:31:56;6.70;;;4.07;;
21657;SDS011;10990;48.174;9.782;2023-07-08T09:34:35;6.93;;;4.05;;
21657;SDS011;10990;48.174;9.782;2023-07-08T09:37:04;7.13;;;3.90;;
21657;SDS011;10990;48.174;9.782;2023-07-08T09:39:47;5.03;;;3.88;;
21657;SDS011;10990;48.174;9.782;2023-07-08T09:42:13;6.13;;;4.07;;
21657;SDS011;10990;48.174;9.782;2023-07-08T09:44:42;4.82;;;3.53;;
21657;SDS011;10990;48.174;9.782;2023-07-08T09:47:19;6.05;;;3.80;;
21657;SDS011;10990;48.174;9.782;2023-07-08T09:49:48;6.45;;;4.10;;
21657;SDS011;10990;48.174;9.782;2023-07-08T09:52:15;5.30;;;3.72;;
21657;SDS011;10990;48.174;9.782;2023-07-08T09:54:44;6.43;;;3.90;;
21657;SDS011;10990;48.174;9.782;2023-07-08T09:57:12;9.13;;;4.28;;
21657;SDS011;10990;48.174;9.782;2023-07-08T09:59:47;10.02;;;4.72;;
21657;SDS011;10990;48.174;9.782;2023-07-08T10:02:27;5.93;;;3.75;;
21657;SDS011;10990;48.174;9.782;2023-07-08T10:04:56;5.95;;;3.70;;
21657;SDS011;10990;48.174;9.782;2023-07-08T10:07:26;6.22;;;3.97;;
21657;SDS011;10990;48.174;9.782;2023-07-08T10:09:54;8.43;;;4.45;;
21657;SDS011;10990;48.174;9.782;2023-07-08T10:12:25;9.65;;;5.00;;
21657;SDS011;10990;48.174;9.782;2023-07-08T10:14:54;8.43;;;4.38;;
21657;SDS011;10990;48.174;9.782;2023-07-08T10:17:27;7.25;;;4.40;;
21657;SDS011;10990;48.174;9.782;2023-07-08T10:19:55;7.15;;;4.57;;
21657;SDS011;10990;48.174;9.782;2023-07-08T10:22:24;9.63;;;4.47;;
21657;SDS011;10990;48.174;9.782;2023-07-08T10:25:00;11.65;;;4.10;;
21657;SDS011;10990;48.174;9.782;2023-07-08T10:27:34;4.38;;;3.50;;
21657;SDS011;10990;48.174;9.782;2023-07-08T10:30:09;8.82;;;3.97;;
21657;SDS011;10990;48.174;9.782;2023-07-08T10:32:52;6.65;;;4.40;;
21657;SDS011;10990;48.174;9.782;2023-07-08T10:35:40;7.75;;;4.93;;
21657;SDS011;10990;48.174;9.782;2023-07-08T10:38:17;6.18;;;4.30;;
21657;SDS011;10990;48.174;9.782;2023-07-08T10:40:53;6.38;;;4.88;;
21657;SDS011;10990;48.174;9.782;2023-07-08T10:43:27;6.28;;;4.32;;
21657;SDS011;10990;48.174;9.782;2023-07-08T10:46:15;6.95;;;4.45;;
21657;SDS011;10990;48.174;9.782;2023-07-08T10:48:54;6.85;;;3.95;;
21657;SDS011;10990;48.174;9.782;2023-07-08T10:51:33;6.72;;;3.60;;
21657;SDS011;10990;48.174;9.782;2023-07-08T10:54:17;5.20;;;3.45;;
21657;SDS011;10990;48.174;9.782;2023-07-08T10:56:55;5.70;;;3.90;;
21657;SDS011;10990;48.174;9.782;2023-07-08T10:59:35;4.93;;;3.67;;
21657;SDS011;10990;48.174;9.782;2023-07-08T11:05:11;3.67;;;2.55;;
21657;SDS011;10990;48.174;9.782;2023-07-08T11:07:50;3.53;;;2.15;;
21657;SDS011;10990;48.174;9.782;2023-07-08T11:10:22;2.63;;;2.03;;
21657;SDS011;10990;48.174;9.782;2023-07-08T11:12:54;2.85;;;1.90;;
21657;SDS011;10990;48.174;9.782;2023-07-08T11:15:28;3.55;;;2.30;;
21657;SDS011;10990;48.174;9.782;2023-07-08T11:17:58;3.80;;;2.40;;
21657;SDS011;10990;48.174;9.782;2023-07-08T11:20:34;2.78;;;1.95;;
21657;SDS011;10990;48.174;9.782;2023-07-08T11:23:08;2.30;;;1.92;;
21657;SDS011;10990;48.174;9.782;2023-07-08T11:25:39;3.00;;;2.10;;
21657;SDS011;10990;48.174;9.782;2023-07-08T11:28:08;4.00;;;2.28;;
21657;SDS011;10990;48.174;9.782;2023-07-08T11:30:42;2.53;;;1.88;;
21657;SDS011;10990;48.174;9.782;2023-07-08T11:33:22;3.10;;;2.30;;
21657;SDS011;10990;48.174;9.782;2023-07-08T11:35:52;4.93;;;2.47;;
21657;SDS011;10990;48.174;9.782;2023-07-08T11:38:24;2.58;;;2.05;;
21657;SDS011;10990;48.174;9.782;2023-07-08T11:40:53;4.50;;;2.30;;
21657;SDS011;10990;48.174;9.782;2023-07-08T11:43:22;2.47;;;2.10;;
21657;SDS011;10990;48.174;9.782;2023-07-08T11:45:53;3.58;;;2.15;;
21657;SDS011;10990;48.174;9.782;2023-07-08T11:48:22;2.40;;;2.00;;
21657;SDS011;10990;48.174;9.782;2023-07-08T11:50:53;3.05;;;2.10;;
21657;SDS011;10990;48.174;9.782;2023-07-08T11:53:35;2.85;;;2.00;;
21657;SDS011;10990;48.174;9.782;2023-07-08T11:56:04;3.72;;;2.10;;
21657;SDS011;10990;48.174;9.782;2023-07-08T11:58:52;3.60;;;1.60;;
21657;SDS011;10990;48.174;9.782;2023-07-08T12:01:26;3.95;;;2.40;;
21657;SDS011;10990;48.174;9.782;2023-07-08T12:03:55;3.67;;;2.00;;
21657;SDS011;10990;48.174;9.782;2023-07-08T12:06:44;3.20;;;2.20;;
21657;SDS011;10990;48.174;9.782;2023-07-08T12:09:14;4.05;;;2.10;;
21657;SDS011;10990;48.174;9.782;2023-07-08T12:11:47;2.38;;;1.90;;
21657;SDS011;10990;48.174;9.782;2023-07-08T12:14:19;3.00;;;2.08;;
21657;SDS011;10990;48.174;9.782;2023-07-08T12:16:45;2.90;;;2.15;;
21657;SDS011;10990;48.174;9.782;2023-07-08T12:19:13;4.45;;;2.40;;
21657;SDS011;10990;48.174;9.782;2023-07-08T12:21:45;2.45;;;2.10;;
21657;SDS011;10990;48.174;9.782;2023-07-08T12:24:12;3.55;;;2.42;;
21657;SDS011;10990;48.174;9.782;2023-07-08T12:26:40;3.38;;;2.40;;
21657;SDS011;10990;48.174;9.782;2023-07-08T12:29:07;4.18;;;2.28;;
21657;SDS011;10990;48.174;9.782;2023-07-08T12:31:36;3.03;;;2.22;;
21657;SDS011;10990;48.174;9.782;2023-07-08T12:34:04;3.92;;;2.30;;
21657;SDS011;10990;48.174;9.782;2023-07-08T12:36:36;5.35;;;2.15;;
21657;SDS011;10990;48.174;9.782;2023-07-08T12:39:04;3.90;;;2.00;;
21657;SDS011;10990;48.174;9.782;2023-07-08T12:41:32;4.10;;;2.15;;
21657;SDS011;10990;48.174;9.782;2023-07-08T12:44:01;3.47;;;2.00;;
21657;SDS011;10990;48.174;9.782;2023-07-08T12:46:28;2.63;;;1.90;;
21657;SDS011;10990;48.174;9.782;2023-07-08T12:48:55;4.65;;;2.20;;
21657;SDS011;10990;48.174;9.782;2023-07-08T12:51:23;3.13;;;2.05;;
21657;SDS011;10990;48.174;9.782;2023-07-08T12:53:52;3.85;;;2.13;;
21657;SDS011;10990;48.174;9.782;2023-07-08T12:56:21;4.93;;;2.00;;
21657;SDS011;10990;48.174;9.782;2023-07-08T12:58:50;3.58;;;2.03;;
21657;SDS011;10990;48.174;9.782;2023-07-08T13:01:20;3.05;;;1.90;;
21657;SDS011;10990;48.174;9.782;2023-07-08T13:03:52;4.13;;;2.25;;
21657;SDS011;10990;48.174;9.782;2023-07-08T13:06:23;2.85;;;1.88;;
21657;SDS011;10990;48.174;9.782;2023-07-08T13:08:56;2.72;;;1.95;;
21657;SDS011;10990;48.174;9.782;2023-07-08T13:11:28;3.28;;;2.33;;
21657;SDS011;10990;48.174;9.782;2023-07-08T13:13:57;4.25;;;2.45;;
21657;SDS011;10990;48.174;9.782;2023-07-08T13:16:28;4.03;;;2.47;;
21657;SDS011;10990;48.174;9.782;2023-07-08T13:18:59;4.00;;;1.90;;
21657;SDS011;10990;48.174;9.782;2023-07-08T13:21:26;4.18;;;2.10;;
21657;SDS011;10990;48.174;9.782;2023-07-08T13:23:55;3.47;;;2.10;;
21657;SDS011;10990;48.174;9.782;2023-07-08T13:26:25;5.43;;;2.28;;
21657;SDS011;10990;48.174;9.782;2023-07-08T13:29:00;5.45;;;2.28;;
21657;SDS011;10990;48.174;9.782;2023-07-08T13:31:31;2.80;;;2.22;;
21657;SDS011;10990;48.174;9.782;2023-07-08T13:34:05;3.67;;;2.10;;
21657;SDS011;10990;48.174;9.782;2023-07-08T13:36:35;2.90;;;2.13;;
21657;SDS011;10990;48.174;9.782;2023-07-08T13:39:05;4.68;;;2.67;;
21657;SDS011;10990;48.174;9.782;2023-07-08T13:41:33;4.07;;;2.40;;
21657;SDS011;10990;48.174;9.782;2023-07-08T13:44:04;4.43;;;2.42;;
21657;SDS011;10990;48.174;9.782;2023-07-08T13:46:34;3.05;;;2.20;;
21657;SDS011;10990;48.174;9.782;2023-07-08T13:49:02;4.40;;;2.65;;
21657;SDS011;10990;48.174;9.782;2023-07-08T13:51:37;4.07;;;2.40;;
21657;SDS011;10990;48.174;9.782;2023-07-08T13:54:08;3.10;;;2.10;;
21657;SDS011;10990;48.174;9.782;2023-07-08T13:56:40;3.85;;;2.30;;
21657;SDS011;10990;48.174;9.782;2023-07-08T13:59:11;4.63;;;2.30;;
21657;SDS011;10990;48.174;9.782;2023-07-08T14:01:43;4.10;;;2.17;;
21657;SDS011;10990;48.174;9.782;2023-07-08T14:04:10;3.30;;;2.20;;
21657;SDS011;10990;48.174;9.782;2023-07-08T14:06:39;4.47;;;2.10;;
21657;SDS011;10990;48.174;9.782;2023-07-08T14:09:10;3.30;;;2.00;;
21657;SDS011;10990;48.174;9.782;2023-07-08T14:11:40;3.00;;;2.20;;
21657;SDS011;10990;48.174;9.782;2023-07-08T14:14:07;4.53;;;2.17;;
21657;SDS011;10990;48.174;9.782;2023-07-08T14:16:36;2.53;;;2.05;;
21657;SDS011;10990;48.174;9.782;2023-07-08T14:19:06;3.88;;;2.22;;
21657;SDS011;10990;48.174;9.782;2023-07-08T14:21:37;5.20;;;2.35;;
21657;SDS011;10990;48.174;9.782;2023-07-08T14:24:08;3.80;;;2.38;;
21657;SDS011;10990;48.174;9.782;2023-07-08T14:26:38;3.15;;;1.95;;
21657;SDS011;10990;48.174;9.782;2023-07-08T14:29:06;4.72;;;2.00;;
21657;SDS011;10990;48.174;9.782;2023-07-08T14:31:33;2.75;;;1.95;;
21657;SDS011;10990;48.174;9.782;2023-07-08T14:34:02;3.30;;;2.10;;
21657;SDS011;10990;48.174;9.782;2023-07-08T14:36:32;4.63;;;2.10;;
21657;SDS011;10990;48.174;9.782;2023-07-08T14:38:58;4.20;;;2.10;;
21657;SDS011;10990;48.174;9.782;2023-07-08T14:41:26;5.53;;;2.40;;
21657;SDS011;10990;48.174;9.782;2023-07-08T14:43:54;3.90;;;2.45;;
21657;SDS011;10990;48.174;9.782;2023-07-08T14:46:21;4.40;;;2.58;;
21657;SDS011;10990;48.174;9.782;2023-07-08T14:48:47;3.67;;;2.63;;
21657;SDS011;10990;48.174;9.782;2023-07-08T14:51:15;3.30;;;2.42;;
21657;SDS011;10990;48.174;9.782;2023-07-08T14:53:42;7.45;;;2.47;;
21657;SDS011;10990;48.174;9.782;2023-07-08T14:56:12;4.45;;;2.35;;
21657;SDS011;10990;48.174;9.782;2023-07-08T14:58:42;5.30;;;2.20;;